ADDS METAR Data INFO
IDs: Format: Raw Decoded Include TAF

Data at: 1145 UTC 17 Jul 2018

KDVT 171053Z AUTO 15006KT 10SM CLR 29/21 A2994 RMK AO2 SLP108 T02940211
KDVT 170953Z AUTO 12006KT 10SM CLR 30/21 A2994 RMK AO2 LTG DSNT SW RAE06 SLP110 P0000 T03000206
KDVT 170853Z AUTO 12010KT 10SM -RA FEW060 SCT090 SCT110 31/21 A2994 RMK AO2 RAB47 SLP108 P0000 60000 T03060206 53011
KDVT 170753Z AUTO 12005KT 10SM FEW100 FEW120 31/20 A2992 RMK AO2 SLP103 T03110200
KDVT 170653Z AUTO 16008KT 10SM CLR 32/19 A2991 RMK AO2 SLP099 T03220194 403890283
KDVT 170553Z AUTO 13008KT 10SM FEW110 33/18 A2990 RMK AO2 SLP098 T03330183 10389 20333 51023
KDVT 170453Z AUTO 12003KT 10SM SCT120 34/19 A2988 RMK AO2 SLP089 T03390189
KDVT 170353Z AUTO 36007KT 10SM CLR 34/19 A2987 RMK AO2 SLP086 T03390189
KDVT 170253Z AUTO 02007KT 10SM CLR 36/18 A2983 RMK AO2 SLP074 T03610183 51007
KDVT 170153Z AUTO 36009KT 10SM CLR 37/18 A2982 RMK AO2 SLP071 T03720178
KDVT 170053Z AUTO 31010KT 10SM BKN090 38/17 A2982 RMK AO2 SLP070 T03780172
KDVT 162353Z AUTO 22007KT 10SM CLR 38/17 A2981 RMK AO2 SLP066 T03780167 10389 20322 56021
KDVT 162253Z AUTO VRB06KT 10SM CLR 38/16 A2982 RMK AO2 LTG DSNT NW SLP069 T03780161
KDVT 162153Z AUTO 20003KT 10SM CLR 37/17 A2985 RMK AO2 LTG DSNT N AND NW SLP081 T03720167
KDVT 162053Z AUTO 10SM CLR 37/17 A2987 RMK AO2 SLP088 T03720172 58023
KDVT 161953Z AUTO 22007KT 190V250 10SM CLR 36/18 A2990 RMK AO2 SLP097 T03560178
KDVT 161853Z AUTO 00000KT 10SM CLR 33/18 A2993 RMK AO2 SLP106 T03330178
KDVT 161753Z AUTO 20005KT 10SM CLR 33/18 A2994 RMK AO2 SLP113 60000 T03280183 10328 20283 58003
KDVT 161653Z AUTO VRB05KT 10SM CLR 32/19 A2995 RMK AO2 SLP116 T03170189
KDVT 161553Z AUTO 00000KT 10SM FEW120 31/19 A2996 RMK AO2 SLP118 T03110189
KDVT 161453Z AUTO 03004KT 10SM CLR 31/20 A2995 RMK AO2 SLP116 60000 T03060200 53010
KDVT 161353Z AUTO 07003KT 10SM SCT110 29/21 A2994 RMK AO2 SLP114 T02890206
KDVT 161253Z AUTO 13003KT 10SM CLR 29/20 A2993 RMK AO2 RAB08E19 SLP108 P0000 T02890200
KDVT 161153Z AUTO 00000KT 10SM SCT070 BKN080 BKN110 29/19 A2992 RMK AO2 SLP104 T02890189 10306 20289 53006
KDVT 161053Z AUTO 04003KT 10SM OVC100 29/18 A2991 RMK AO2 SLP101 T02940183
KDVT 160953Z AUTO 04007KT 10SM BKN100 29/19 A2990 RMK AO2 SLP098 T02940189
KDVT 160853Z AUTO 02004KT 10SM CLR 29/19 A2990 RMK AO2 SLP098 T02940189 58003
KDVT 160753Z AUTO 05003KT 10SM BKN110 31/18 A2991 RMK AO2 SLP101 T03060178
KDVT 160653Z AUTO 02004KT 10SM SCT110 31/18 A2991 RMK AO2 SLP101 T03060178 403560289
KDVT 160553Z AUTO 02003KT 10SM CLR 31/18 A2991 RMK AO2 SLP102 T03060178 10356 20306 51007
KDVT 160453Z AUTO 00000KT 10SM CLR 31/17 A2991 RMK AO2 SLP101 T03110172
KDVT 160353Z AUTO 03005KT 10SM CLR 31/18 A2990 RMK AO2 SLP098 T03110183
KDVT 160253Z AUTO 36010KT 10SM CLR 32/18 A2989 RMK AO2 SLP093 T03170183 53004
KDVT 160153Z AUTO 35011KT 10SM CLR 32/18 A2988 RMK AO2 SLP092 T03220183
KDVT 160053Z AUTO 34011KT 10SM FEW075 34/17 A2987 RMK AO2 WSHFT 0036 SLP086 T03440172
KDVT 152353Z AUTO 13004KT 10SM CLR 35/17 A2987 RMK AO2 SLP088 60000 T03500167 10356 20306 56023